Charlevoix, Canada
Current Conditions -  °F | °C
As of 12:00 PM on Friday 31 Oct 2014 (Local Time) from CYOY Reporting Station
Overcast Overcast  
Wind Chill: 41°   Ceiling: 5100
Heat Index: 41°   Visibility: 9mi
Dew Point: 30°   Wind: 2mph
Humidity: 65%   Direction: 180°S
Pressure: 30.04"   Gusts: NA
Location:  47.28°N, 70.63°W
Report Text: CYOY 311600Z AUTO 18002KT 9SM OVC051 05/M01 A3004 RMK SLP179
Loading
Personal Weather Stations






























Interactive Weather Map
Tropical Storm Tracking
New forecast layout! Learn more

10-Day Weather Forecast

Advertisements
Track Severe Weather on mobile